Terminal Aerodrome Forecast
Issued by NWS

Home | Current Version | Previous Version | Text Only | Print | Product List | Glossary On
Versions: 1 2 3 4 5 6 7 8 9 10 11 12 13 14 15 16 17 18 19 20 21 22 23 24 25 26 27 28 29 30 31 32 33 34 35 36 37 38 39 40 41 42 43 44 45 46 47 48 49
000
FTUS43 KMKX 290520
TAFENW
TAF
KENW 290520Z 2906/3006 18007KT P6SM SCT250
     FM291000 19011G18KT P6SM BKN250 WS020/20045KT
     FM291600 19018G29KT 4SM -RA BKN025 WS020/20050KT
      TEMPO 2916/2917 1SM -RAPL
     FM291700 19021G33KT 2SM -RAPL SCT008 OVC015
     FM291900 21021G33KT P6SM BKN015
     FM292000 22022G33KT P6SM VCSH OVC015
     FM300000 25015KT P6SM BKN035
     FM300400 30013KT P6SM SCT040=

USA.gov is the U.S. government's official web portal to all federal, state and local government web resources and services.